sensor_id;sensor_type;location;lat;lon;timestamp;pressure;altitude;pressure_sealevel;temperature;humidity
24558;BME280;12726;49.148;8.582;2022-12-18T00:00:06;101741.84;;;-9.31;100.00
24558;BME280;12726;49.148;8.582;2022-12-18T00:02:52;101739.97;;;-9.27;100.00
24558;BME280;12726;49.148;8.582;2022-12-18T00:05:37;101749.50;;;-9.26;100.00
24558;BME280;12726;49.148;8.582;2022-12-18T00:08:24;101760.59;;;-9.21;100.00
24558;BME280;12726;49.148;8.582;2022-12-18T00:11:12;101748.53;;;-9.24;100.00
24558;BME280;12726;49.148;8.582;2022-12-18T00:13:58;101740.91;;;-9.30;100.00
24558;BME280;12726;49.148;8.582;2022-12-18T00:16:45;101744.31;;;-9.28;100.00
24558;BME280;12726;49.148;8.582;2022-12-18T00:19:30;101742.47;;;-9.24;100.00
24558;BME280;12726;49.148;8.582;2022-12-18T00:22:15;101747.56;;;-9.21;100.00
24558;BME280;12726;49.148;8.582;2022-12-18T00:25:03;101749.38;;;-9.23;100.00
24558;BME280;12726;49.148;8.582;2022-12-18T00:27:48;101747.59;;;-9.23;100.00
24558;BME280;12726;49.148;8.582;2022-12-18T00:30:34;101745.00;;;-9.23;100.00
24558;BME280;12726;49.148;8.582;2022-12-18T00:33:19;101756.16;;;-9.18;100.00
24558;BME280;12726;49.148;8.582;2022-12-18T00:36:05;101753.44;;;-9.16;100.00
24558;BME280;12726;49.148;8.582;2022-12-18T00:38:56;101761.28;;;-9.16;100.00
24558;BME280;12726;49.148;8.582;2022-12-18T00:41:42;101765.72;;;-9.18;100.00
24558;BME280;12726;49.148;8.582;2022-12-18T00:44:46;101757.94;;;-9.20;100.00
24558;BME280;12726;49.148;8.582;2022-12-18T00:47:31;101748.38;;;-9.19;100.00
24558;BME280;12726;49.148;8.582;2022-12-18T00:50:16;101756.03;;;-9.15;100.00
24558;BME280;12726;49.148;8.582;2022-12-18T00:53:02;101746.56;;;-9.17;100.00
24558;BME280;12726;49.148;8.582;2022-12-18T00:55:47;101751.84;;;-9.19;100.00
24558;BME280;12726;49.148;8.582;2022-12-18T00:58:34;101766.44;;;-9.15;100.00
24558;BME280;12726;49.148;8.582;2022-12-18T01:01:19;101770.81;;;-9.15;100.00
24558;BME280;12726;49.148;8.582;2022-12-18T01:04:04;101775.53;;;-9.01;100.00
24558;BME280;12726;49.148;8.582;2022-12-18T01:06:50;101758.22;;;-9.02;100.00
24558;BME280;12726;49.148;8.582;2022-12-18T01:09:35;101740.03;;;-9.05;100.00
24558;BME280;12726;49.148;8.582;2022-12-18T01:12:20;101746.22;;;-9.08;100.00
24558;BME280;12726;49.148;8.582;2022-12-18T01:15:08;101743.69;;;-9.09;100.00
24558;BME280;12726;49.148;8.582;2022-12-18T01:17:53;101749.00;;;-9.13;100.00
24558;BME280;12726;49.148;8.582;2022-12-18T01:20:39;101750.72;;;-9.12;100.00
24558;BME280;12726;49.148;8.582;2022-12-18T01:23:27;101759.47;;;-9.14;100.00
24558;BME280;12726;49.148;8.582;2022-12-18T01:26:15;101753.38;;;-9.13;100.00
24558;BME280;12726;49.148;8.582;2022-12-18T01:29:00;101759.38;;;-9.11;100.00
24558;BME280;12726;49.148;8.582;2022-12-18T01:31:47;101754.25;;;-9.14;100.00
24558;BME280;12726;49.148;8.582;2022-12-18T01:34:32;101747.28;;;-9.14;100.00
24558;BME280;12726;49.148;8.582;2022-12-18T01:37:18;101736.59;;;-9.06;100.00
24558;BME280;12726;49.148;8.582;2022-12-18T01:40:04;101751.16;;;-9.00;100.00
24558;BME280;12726;49.148;8.582;2022-12-18T01:42:51;101759.88;;;-9.01;100.00
24558;BME280;12726;49.148;8.582;2022-12-18T01:45:36;101754.00;;;-9.06;100.00
24558;BME280;12726;49.148;8.582;2022-12-18T01:48:23;101747.06;;;-9.07;100.00
24558;BME280;12726;49.148;8.582;2022-12-18T01:51:12;101753.31;;;-9.12;100.00
24558;BME280;12726;49.148;8.582;2022-12-18T01:53:57;101757.72;;;-9.14;100.00
24558;BME280;12726;49.148;8.582;2022-12-18T01:56:44;101763.06;;;-9.17;100.00
24558;BME280;12726;49.148;8.582;2022-12-18T01:59:31;101768.28;;;-9.17;100.00
24558;BME280;12726;49.148;8.582;2022-12-18T02:02:17;101759.69;;;-9.20;100.00
24558;BME280;12726;49.148;8.582;2022-12-18T02:05:06;101766.66;;;-9.21;100.00
24558;BME280;12726;49.148;8.582;2022-12-18T02:08:00;101762.25;;;-9.19;100.00
24558;BME280;12726;49.148;8.582;2022-12-18T02:10:56;101757.00;;;-9.17;100.00
24558;BME280;12726;49.148;8.582;2022-12-18T02:13:50;101756.19;;;-9.19;100.00
24558;BME280;12726;49.148;8.582;2022-12-18T02:16:41;101740.63;;;-9.22;100.00
24558;BME280;12726;49.148;8.582;2022-12-18T02:19:50;101741.50;;;-9.22;100.00
24558;BME280;12726;49.148;8.582;2022-12-18T02:22:47;101748.47;;;-9.22;100.00
24558;BME280;12726;49.148;8.582;2022-12-18T02:26:06;101765.81;;;-9.21;100.00
24558;BME280;12726;49.148;8.582;2022-12-18T02:28:56;101762.31;;;-9.20;100.00
24558;BME280;12726;49.148;8.582;2022-12-18T02:31:48;101767.53;;;-9.20;100.00
24558;BME280;12726;49.148;8.582;2022-12-18T02:34:38;101767.44;;;-9.17;100.00
24558;BME280;12726;49.148;8.582;2022-12-18T02:37:24;101759.44;;;-9.13;100.00
24558;BME280;12726;49.148;8.582;2022-12-18T02:40:12;101761.94;;;-9.09;100.00
24558;BME280;12726;49.148;8.582;2022-12-18T02:43:07;101761.81;;;-9.06;100.00
24558;BME280;12726;49.148;8.582;2022-12-18T02:45:54;101748.72;;;-9.05;100.00
24558;BME280;12726;49.148;8.582;2022-12-18T02:48:41;101760.00;;;-9.04;100.00
24558;BME280;12726;49.148;8.582;2022-12-18T02:51:29;101773.06;;;-9.04;100.00
24558;BME280;12726;49.148;8.582;2022-12-18T02:54:23;101774.75;;;-9.03;100.00
24558;BME280;12726;49.148;8.582;2022-12-18T02:57:18;101776.47;;;-9.02;100.00
24558;BME280;12726;49.148;8.582;2022-12-18T03:00:10;101777.28;;;-9.02;100.00
24558;BME280;12726;49.148;8.582;2022-12-18T03:02:59;101769.47;;;-9.02;100.00
24558;BME280;12726;49.148;8.582;2022-12-18T03:05:53;101762.63;;;-9.04;100.00
24558;BME280;12726;49.148;8.582;2022-12-18T03:08:42;101761.59;;;-9.00;100.00
24558;BME280;12726;49.148;8.582;2022-12-18T03:11:32;101758.09;;;-8.99;100.00
24558;BME280;12726;49.148;8.582;2022-12-18T03:14:38;101759.59;;;-8.94;100.00
24558;BME280;12726;49.148;8.582;2022-12-18T03:17:27;101737.97;;;-8.96;100.00
24558;BME280;12726;49.148;8.582;2022-12-18T03:20:18;101749.75;;;-8.86;100.00
24558;BME280;12726;49.148;8.582;2022-12-18T03:23:08;101756.84;;;-8.89;100.00
24558;BME280;12726;49.148;8.582;2022-12-18T03:25:57;101763.59;;;-8.84;100.00
24558;BME280;12726;49.148;8.582;2022-12-18T03:28:47;101762.47;;;-8.77;100.00
24558;BME280;12726;49.148;8.582;2022-12-18T03:31:37;101765.75;;;-8.72;100.00
24558;BME280;12726;49.148;8.582;2022-12-18T03:34:27;101766.31;;;-8.63;100.00
24558;BME280;12726;49.148;8.582;2022-12-18T03:37:13;101745.19;;;-8.57;100.00
24558;BME280;12726;49.148;8.582;2022-12-18T03:39:59;101748.00;;;-8.62;100.00
24558;BME280;12726;49.148;8.582;2022-12-18T03:42:48;101747.72;;;-8.54;100.00
24558;BME280;12726;49.148;8.582;2022-12-18T03:45:41;101753.84;;;-8.55;100.00
24558;BME280;12726;49.148;8.582;2022-12-18T03:48:30;101732.94;;;-8.55;100.00
24558;BME280;12726;49.148;8.582;2022-12-18T03:51:22;101743.25;;;-8.52;100.00
24558;BME280;12726;49.148;8.582;2022-12-18T03:54:11;101741.78;;;-8.59;100.00
24558;BME280;12726;49.148;8.582;2022-12-18T03:56:59;101741.06;;;-8.63;100.00
24558;BME280;12726;49.148;8.582;2022-12-18T03:59:48;101753.38;;;-8.66;100.00
24558;BME280;12726;49.148;8.582;2022-12-18T04:02:35;101746.41;;;-8.66;100.00
24558;BME280;12726;49.148;8.582;2022-12-18T04:05:25;101747.16;;;-8.62;100.00
24558;BME280;12726;49.148;8.582;2022-12-18T04:08:13;101735.91;;;-8.64;100.00
24558;BME280;12726;49.148;8.582;2022-12-18T04:10:59;101742.78;;;-8.62;100.00
24558;BME280;12726;49.148;8.582;2022-12-18T04:13:45;101738.22;;;-8.57;100.00
24558;BME280;12726;49.148;8.582;2022-12-18T04:16:31;101739.69;;;-8.50;100.00
24558;BME280;12726;49.148;8.582;2022-12-18T04:19:16;101722.31;;;-8.51;100.00
24558;BME280;12726;49.148;8.582;2022-12-18T04:22:01;101728.44;;;-8.52;100.00
24558;BME280;12726;49.148;8.582;2022-12-18T04:24:48;101735.00;;;-8.63;100.00
24558;BME280;12726;49.148;8.582;2022-12-18T04:27:33;101736.25;;;-8.74;100.00
24558;BME280;12726;49.148;8.582;2022-12-18T04:30:18;101733.63;;;-8.74;100.00
24558;BME280;12726;49.148;8.582;2022-12-18T04:33:05;101735.53;;;-8.77;100.00
24558;BME280;12726;49.148;8.582;2022-12-18T04:35:53;101726.88;;;-8.79;100.00
24558;BME280;12726;49.148;8.582;2022-12-18T04:38:38;101718.16;;;-8.78;100.00
24558;BME280;12726;49.148;8.582;2022-12-18T04:41:25;101709.00;;;-8.66;100.00
24558;BME280;12726;49.148;8.582;2022-12-18T04:44:10;101713.72;;;-8.53;100.00
24558;BME280;12726;49.148;8.582;2022-12-18T04:46:55;101731.19;;;-8.55;100.00
24558;BME280;12726;49.148;8.582;2022-12-18T04:49:41;101736.28;;;-8.52;100.00
24558;BME280;12726;49.148;8.582;2022-12-18T04:52:26;101732.72;;;-8.49;100.00
24558;BME280;12726;49.148;8.582;2022-12-18T04:55:11;101714.69;;;-8.55;100.00
24558;BME280;12726;49.148;8.582;2022-12-18T04:57:58;101720.69;;;-8.53;100.00
24558;BME280;12726;49.148;8.582;2022-12-18T05:00:43;101724.59;;;-8.42;100.00
24558;BME280;12726;49.148;8.582;2022-12-18T05:03:28;101723.16;;;-8.50;100.00
24558;BME280;12726;49.148;8.582;2022-12-18T05:06:14;101721.56;;;-8.53;100.00
24558;BME280;12726;49.148;8.582;2022-12-18T05:08:59;101724.22;;;-8.54;100.00
24558;BME280;12726;49.148;8.582;2022-12-18T05:11:44;101729.16;;;-8.47;100.00
24558;BME280;12726;49.148;8.582;2022-12-18T05:14:31;101730.84;;;-8.46;100.00
24558;BME280;12726;49.148;8.582;2022-12-18T05:17:17;101736.84;;;-8.44;100.00
24558;BME280;12726;49.148;8.582;2022-12-18T05:20:03;101747.47;;;-8.48;100.00
24558;BME280;12726;49.148;8.582;2022-12-18T05:22:49;101736.84;;;-8.44;100.00
24558;BME280;12726;49.148;8.582;2022-12-18T05:25:34;101744.81;;;-8.47;100.00
24558;BME280;12726;49.148;8.582;2022-12-18T05:28:20;101760.28;;;-8.42;100.00
24558;BME280;12726;49.148;8.582;2022-12-18T05:31:07;101751.13;;;-8.31;100.00
24558;BME280;12726;49.148;8.582;2022-12-18T05:33:52;101755.41;;;-8.30;100.00
24558;BME280;12726;49.148;8.582;2022-12-18T05:36:38;101746.41;;;-8.22;100.00
24558;BME280;12726;49.148;8.582;2022-12-18T05:39:23;101739.28;;;-8.17;100.00
24558;BME280;12726;49.148;8.582;2022-12-18T05:42:08;101727.53;;;-8.07;100.00
24558;BME280;12726;49.148;8.582;2022-12-18T05:44:54;101738.72;;;-8.04;100.00
24558;BME280;12726;49.148;8.582;2022-12-18T05:47:40;101736.22;;;-8.07;100.00
24558;BME280;12726;49.148;8.582;2022-12-18T05:50:26;101730.94;;;-8.05;100.00
24558;BME280;12726;49.148;8.582;2022-12-18T05:53:12;101728.38;;;-8.07;100.00
24558;BME280;12726;49.148;8.582;2022-12-18T05:56:00;101718.28;;;-7.94;99.97
24558;BME280;12726;49.148;8.582;2022-12-18T05:58:45;101708.94;;;-7.79;99.22
24558;BME280;12726;49.148;8.582;2022-12-18T06:01:31;101709.25;;;-7.87;98.79
24558;BME280;12726;49.148;8.582;2022-12-18T06:04:18;101711.94;;;-7.88;98.90
24558;BME280;12726;49.148;8.582;2022-12-18T06:07:03;101719.00;;;-7.91;99.05
24558;BME280;12726;49.148;8.582;2022-12-18T06:09:48;101751.88;;;-7.85;98.67
24558;BME280;12726;49.148;8.582;2022-12-18T06:12:33;101746.06;;;-7.92;98.53
24558;BME280;12726;49.148;8.582;2022-12-18T06:15:19;101757.91;;;-8.05;98.13
24558;BME280;12726;49.148;8.582;2022-12-18T06:18:04;101760.09;;;-8.16;98.58
24558;BME280;12726;49.148;8.582;2022-12-18T06:20:55;101777.94;;;-8.27;98.81
24558;BME280;12726;49.148;8.582;2022-12-18T06:23:41;101774.72;;;-8.32;98.95
24558;BME280;12726;49.148;8.582;2022-12-18T06:26:27;101785.16;;;-8.32;99.61
24558;BME280;12726;49.148;8.582;2022-12-18T06:29:13;101786.50;;;-8.23;99.71
24558;BME280;12726;49.148;8.582;2022-12-18T06:31:58;101781.53;;;-8.08;99.66
24558;BME280;12726;49.148;8.582;2022-12-18T06:34:43;101791.09;;;-8.07;99.67
24558;BME280;12726;49.148;8.582;2022-12-18T06:37:31;101796.50;;;-8.11;99.54
24558;BME280;12726;49.148;8.582;2022-12-18T06:40:16;101787.00;;;-8.14;99.27
24558;BME280;12726;49.148;8.582;2022-12-18T06:43:01;101789.56;;;-8.12;99.53
24558;BME280;12726;49.148;8.582;2022-12-18T06:45:47;101784.59;;;-7.97;99.12
24558;BME280;12726;49.148;8.582;2022-12-18T06:48:36;101795.16;;;-8.00;99.37
24558;BME280;12726;49.148;8.582;2022-12-18T06:51:23;101806.97;;;-7.89;98.65
24558;BME280;12726;49.148;8.582;2022-12-18T06:54:10;101817.97;;;-8.03;96.32
24558;BME280;12726;49.148;8.582;2022-12-18T06:56:55;101812.63;;;-8.23;93.44
24558;BME280;12726;49.148;8.582;2022-12-18T06:59:40;101814.78;;;-8.56;91.87
24558;BME280;12726;49.148;8.582;2022-12-18T07:02:26;101813.50;;;-8.93;91.65
24558;BME280;12726;49.148;8.582;2022-12-18T07:05:11;101822.34;;;-9.22;92.44
24558;BME280;12726;49.148;8.582;2022-12-18T07:07:57;101833.69;;;-9.49;92.78
24558;BME280;12726;49.148;8.582;2022-12-18T07:10:44;101833.28;;;-9.63;93.99
24558;BME280;12726;49.148;8.582;2022-12-18T07:13:29;101824.91;;;-9.73;94.60
24558;BME280;12726;49.148;8.582;2022-12-18T07:16:17;101834.88;;;-9.85;94.91
24558;BME280;12726;49.148;8.582;2022-12-18T07:19:02;101842.88;;;-9.92;95.88
24558;BME280;12726;49.148;8.582;2022-12-18T07:21:49;101845.75;;;-10.01;95.83
24558;BME280;12726;49.148;8.582;2022-12-18T07:24:34;101839.16;;;-10.11;96.25
24558;BME280;12726;49.148;8.582;2022-12-18T07:27:21;101830.47;;;-10.11;96.63
24558;BME280;12726;49.148;8.582;2022-12-18T07:30:07;101846.97;;;-10.11;97.11
24558;BME280;12726;49.148;8.582;2022-12-18T07:32:53;101846.97;;;-10.11;96.91
24558;BME280;12726;49.148;8.582;2022-12-18T07:35:38;101847.94;;;-10.15;97.09
24558;BME280;12726;49.148;8.582;2022-12-18T07:38:23;101859.38;;;-10.19;96.93
24558;BME280;12726;49.148;8.582;2022-12-18T07:41:10;101856.84;;;-10.22;96.73
24558;BME280;12726;49.148;8.582;2022-12-18T07:43:56;101858.75;;;-10.27;96.82
24558;BME280;12726;49.148;8.582;2022-12-18T07:46:42;101866.41;;;-10.22;97.07
24558;BME280;12726;49.148;8.582;2022-12-18T07:49:27;101866.53;;;-10.25;97.14
24558;BME280;12726;49.148;8.582;2022-12-18T07:52:12;101871.09;;;-10.06;97.67
24558;BME280;12726;49.148;8.582;2022-12-18T07:54:58;101865.84;;;-10.04;97.35
24558;BME280;12726;49.148;8.582;2022-12-18T07:57:43;101877.31;;;-10.10;97.06
24558;BME280;12726;49.148;8.582;2022-12-18T08:00:30;101877.25;;;-10.08;96.65
24558;BME280;12726;49.148;8.582;2022-12-18T08:03:16;101883.44;;;-10.12;96.50
24558;BME280;12726;49.148;8.582;2022-12-18T08:06:02;101885.13;;;-10.10;96.98
24558;BME280;12726;49.148;8.582;2022-12-18T08:08:47;101882.22;;;-10.01;97.06
24558;BME280;12726;49.148;8.582;2022-12-18T08:11:33;101886.56;;;-10.01;96.92
24558;BME280;12726;49.148;8.582;2022-12-18T08:14:18;101876.78;;;-9.93;97.15
24558;BME280;12726;49.148;8.582;2022-12-18T08:17:05;101887.34;;;-9.98;96.91
24558;BME280;12726;49.148;8.582;2022-12-18T08:19:50;101876.00;;;-9.95;97.34
24558;BME280;12726;49.148;8.582;2022-12-18T08:22:37;101882.97;;;-9.96;97.90
24558;BME280;12726;49.148;8.582;2022-12-18T08:25:22;101878.25;;;-9.84;98.40
24558;BME280;12726;49.148;8.582;2022-12-18T08:28:08;101877.28;;;-9.80;98.90
24558;BME280;12726;49.148;8.582;2022-12-18T08:30:53;101870.78;;;-9.67;99.02
24558;BME280;12726;49.148;8.582;2022-12-18T08:33:40;101883.47;;;-9.57;99.11
24558;BME280;12726;49.148;8.582;2022-12-18T08:36:25;101869.13;;;-9.43;99.08
24558;BME280;12726;49.148;8.582;2022-12-18T08:39:10;101860.81;;;-9.28;99.22
24558;BME280;12726;49.148;8.582;2022-12-18T08:41:56;101856.66;;;-9.09;99.21
24558;BME280;12726;49.148;8.582;2022-12-18T08:44:58;101852.38;;;-8.85;98.92
24558;BME280;12726;49.148;8.582;2022-12-18T08:47:44;101845.25;;;-8.57;98.90
24558;BME280;12726;49.148;8.582;2022-12-18T08:50:30;101848.34;;;-8.46;97.29
24558;BME280;12726;49.148;8.582;2022-12-18T08:53:16;101850.19;;;-8.26;96.35
24558;BME280;12726;49.148;8.582;2022-12-18T08:56:01;101832.84;;;-8.05;94.98
24558;BME280;12726;49.148;8.582;2022-12-18T08:58:46;101824.53;;;-7.09;96.34
24558;BME280;12726;49.148;8.582;2022-12-18T09:01:32;101819.78;;;-5.68;96.49
24558;BME280;12726;49.148;8.582;2022-12-18T09:04:17;101813.56;;;-4.31;92.17
24558;BME280;12726;49.148;8.582;2022-12-18T09:07:04;101810.22;;;-2.96;85.60
24558;BME280;12726;49.148;8.582;2022-12-18T09:09:49;101809.00;;;-1.65;75.61
24558;BME280;12726;49.148;8.582;2022-12-18T09:12:34;101806.22;;;-0.71;69.41
24558;BME280;12726;49.148;8.582;2022-12-18T09:15:19;101793.66;;;0.18;61.87
24558;BME280;12726;49.148;8.582;2022-12-18T09:18:05;101795.66;;;-0.10;59.57
24558;BME280;12726;49.148;8.582;2022-12-18T09:20:50;101784.50;;;0.34;60.34
24558;BME280;12726;49.148;8.582;2022-12-18T09:23:38;101788.38;;;1.23;56.92
24558;BME280;12726;49.148;8.582;2022-12-18T09:26:24;101794.06;;;1.40;56.59
24558;BME280;12726;49.148;8.582;2022-12-18T09:29:10;101808.44;;;1.60;55.32
24558;BME280;12726;49.148;8.582;2022-12-18T09:31:56;101818.63;;;2.20;53.83
24558;BME280;12726;49.148;8.582;2022-12-18T09:34:41;101815.28;;;2.82;52.14
24558;BME280;12726;49.148;8.582;2022-12-18T09:37:26;101826.41;;;3.29;48.98
24558;BME280;12726;49.148;8.582;2022-12-18T09:40:14;101812.31;;;2.75;51.09
24558;BME280;12726;49.148;8.582;2022-12-18T09:43:03;101818.88;;;3.34;50.45
24558;BME280;12726;49.148;8.582;2022-12-18T09:45:52;101821.53;;;3.94;48.27
24558;BME280;12726;49.148;8.582;2022-12-18T09:48:42;101833.53;;;4.19;48.23
24558;BME280;12726;49.148;8.582;2022-12-18T09:51:32;101852.41;;;4.47;47.64
24558;BME280;12726;49.148;8.582;2022-12-18T09:54:21;101846.09;;;5.05;45.18
24558;BME280;12726;49.148;8.582;2022-12-18T09:57:13;101847.81;;;5.06;43.95
24558;BME280;12726;49.148;8.582;2022-12-18T10:00:04;101850.16;;;5.95;43.82
24558;BME280;12726;49.148;8.582;2022-12-18T10:02:51;101844.13;;;5.27;43.56
24558;BME280;12726;49.148;8.582;2022-12-18T10:05:44;101842.03;;;5.21;42.12
24558;BME280;12726;49.148;8.582;2022-12-18T10:08:38;101842.91;;;4.73;45.07
24558;BME280;12726;49.148;8.582;2022-12-18T10:11:36;101835.59;;;3.97;44.20
24558;BME280;12726;49.148;8.582;2022-12-18T10:14:29;101844.50;;;3.86;46.81
24558;BME280;12726;49.148;8.582;2022-12-18T10:17:23;101845.09;;;5.35;43.49
24558;BME280;12726;49.148;8.582;2022-12-18T10:20:14;101838.38;;;5.87;42.07
24558;BME280;12726;49.148;8.582;2022-12-18T10:23:04;101834.22;;;6.30;41.02
24558;BME280;12726;49.148;8.582;2022-12-18T10:25:59;101828.75;;;6.49;40.11
24558;BME280;12726;49.148;8.582;2022-12-18T10:28:45;101837.66;;;5.39;41.47
24558;BME280;12726;49.148;8.582;2022-12-18T10:31:33;101833.03;;;5.12;42.88
24558;BME280;12726;49.148;8.582;2022-12-18T10:34:18;101836.84;;;3.21;45.39
24558;BME280;12726;49.148;8.582;2022-12-18T10:37:06;101829.59;;;3.74;45.05
24558;BME280;12726;49.148;8.582;2022-12-18T10:40:08;101832.31;;;3.93;45.46
24558;BME280;12726;49.148;8.582;2022-12-18T10:43:04;101819.03;;;4.03;45.08
24558;BME280;12726;49.148;8.582;2022-12-18T10:46:00;101808.53;;;3.71;45.01
24558;BME280;12726;49.148;8.582;2022-12-18T10:48:53;101813.66;;;3.53;47.13
24558;BME280;12726;49.148;8.582;2022-12-18T10:51:39;101805.25;;;4.86;44.74
24558;BME280;12726;49.148;8.582;2022-12-18T10:54:25;101803.13;;;5.18;42.26
24558;BME280;12726;49.148;8.582;2022-12-18T10:57:15;101798.81;;;5.54;43.87
24558;BME280;12726;49.148;8.582;2022-12-18T11:00:22;101787.53;;;6.78;41.10
24558;BME280;12726;49.148;8.582;2022-12-18T11:03:29;101796.31;;;6.70;40.43
24558;BME280;12726;49.148;8.582;2022-12-18T11:06:18;101825.78;;;6.52;41.41
24558;BME280;12726;49.148;8.582;2022-12-18T11:09:09;101798.53;;;7.10;40.43
24558;BME280;12726;49.148;8.582;2022-12-18T11:12:06;101804.84;;;7.53;38.97
24558;BME280;12726;49.148;8.582;2022-12-18T11:14:59;101805.16;;;7.06;40.46
24558;BME280;12726;49.148;8.582;2022-12-18T11:17:47;101800.16;;;7.89;38.72
24558;BME280;12726;49.148;8.582;2022-12-18T11:20:34;101821.16;;;7.41;40.00
24558;BME280;12726;49.148;8.582;2022-12-18T11:23:22;101812.84;;;7.78;38.14
24558;BME280;12726;49.148;8.582;2022-12-18T11:26:08;101803.34;;;7.58;38.90
24558;BME280;12726;49.148;8.582;2022-12-18T11:29:08;101792.22;;;7.45;38.81
24558;BME280;12726;49.148;8.582;2022-12-18T11:32:22;101795.09;;;7.00;40.09
24558;BME280;12726;49.148;8.582;2022-12-18T11:35:15;101796.56;;;6.59;41.61
24558;BME280;12726;49.148;8.582;2022-12-18T11:38:06;101798.09;;;6.79;41.19
24558;BME280;12726;49.148;8.582;2022-12-18T11:41:01;101796.53;;;6.41;41.37
24558;BME280;12726;49.148;8.582;2022-12-18T11:43:52;101790.66;;;6.91;40.05
24558;BME280;12726;49.148;8.582;2022-12-18T11:46:46;101796.97;;;5.92;42.21
24558;BME280;12726;49.148;8.582;2022-12-18T11:49:35;101791.34;;;5.58;44.89
24558;BME280;12726;49.148;8.582;2022-12-18T11:52:23;101782.31;;;5.12;44.29
24558;BME280;12726;49.148;8.582;2022-12-18T11:55:12;101786.28;;;4.69;45.06
24558;BME280;12726;49.148;8.582;2022-12-18T11:58:05;101785.88;;;3.86;46.93
24558;BME280;12726;49.148;8.582;2022-12-18T12:00:57;101776.38;;;3.83;47.93
24558;BME280;12726;49.148;8.582;2022-12-18T12:04:10;101767.75;;;3.70;47.43
24558;BME280;12726;49.148;8.582;2022-12-18T12:07:11;101771.31;;;3.20;48.64
24558;BME280;12726;49.148;8.582;2022-12-18T12:10:06;101768.28;;;2.19;52.14
24558;BME280;12726;49.148;8.582;2022-12-18T12:13:05;101771.72;;;1.87;52.75
24558;BME280;12726;49.148;8.582;2022-12-18T12:16:03;101776.34;;;1.41;54.49
24558;BME280;12726;49.148;8.582;2022-12-18T12:19:00;101775.25;;;1.43;54.42
24558;BME280;12726;49.148;8.582;2022-12-18T12:21:51;101760.41;;;1.30;56.17
24558;BME280;12726;49.148;8.582;2022-12-18T12:24:48;101743.38;;;1.10;57.02
24558;BME280;12726;49.148;8.582;2022-12-18T12:27:43;101742.44;;;1.22;56.06
24558;BME280;12726;49.148;8.582;2022-12-18T12:30:37;101756.91;;;1.29;56.54
24558;BME280;12726;49.148;8.582;2022-12-18T12:33:36;101760.16;;;1.44;57.75
24558;BME280;12726;49.148;8.582;2022-12-18T12:36:31;101760.66;;;1.49;56.85
24558;BME280;12726;49.148;8.582;2022-12-18T12:39:23;101760.66;;;1.49;57.42
24558;BME280;12726;49.148;8.582;2022-12-18T12:42:17;101759.47;;;1.42;58.51
24558;BME280;12726;49.148;8.582;2022-12-18T12:45:25;101765.56;;;1.87;58.18
24558;BME280;12726;49.148;8.582;2022-12-18T12:48:28;101752.19;;;1.66;57.08
24558;BME280;12726;49.148;8.582;2022-12-18T12:51:21;101766.31;;;1.44;58.49
24558;BME280;12726;49.148;8.582;2022-12-18T12:54:11;101762.09;;;1.20;60.31
24558;BME280;12726;49.148;8.582;2022-12-18T12:57:04;101753.28;;;1.52;59.51
24558;BME280;12726;49.148;8.582;2022-12-18T12:59:58;101749.09;;;1.28;59.43
24558;BME280;12726;49.148;8.582;2022-12-18T13:02:51;101758.84;;;0.70;61.21
24558;BME280;12726;49.148;8.582;2022-12-18T13:05:45;101741.72;;;0.28;63.05
24558;BME280;12726;49.148;8.582;2022-12-18T13:08:52;101743.50;;;0.04;64.87
24558;BME280;12726;49.148;8.582;2022-12-18T13:11:40;101727.53;;;0.05;66.05
24558;BME280;12726;49.148;8.582;2022-12-18T13:14:43;101721.59;;;-0.22;66.72
24558;BME280;12726;49.148;8.582;2022-12-18T13:17:30;101719.00;;;-0.48;67.47
24558;BME280;12726;49.148;8.582;2022-12-18T13:20:16;101725.72;;;-0.67;68.56
24558;BME280;12726;49.148;8.582;2022-12-18T13:23:19;101708.91;;;-0.79;69.88
24558;BME280;12726;49.148;8.582;2022-12-18T13:26:30;101711.31;;;-0.76;69.98
24558;BME280;12726;49.148;8.582;2022-12-18T13:29:41;101699.28;;;-1.05;70.21
24558;BME280;12726;49.148;8.582;2022-12-18T13:32:26;101698.03;;;-1.12;71.17
24558;BME280;12726;49.148;8.582;2022-12-18T13:35:38;101702.69;;;-1.16;72.23
24558;BME280;12726;49.148;8.582;2022-12-18T13:38:33;101693.59;;;-1.37;73.09
24558;BME280;12726;49.148;8.582;2022-12-18T13:41:25;101694.72;;;-1.54;74.81
24558;BME280;12726;49.148;8.582;2022-12-18T13:44:24;101695.47;;;-1.52;76.59
24558;BME280;12726;49.148;8.582;2022-12-18T13:47:26;101688.69;;;-1.56;76.81
24558;BME280;12726;49.148;8.582;2022-12-18T13:50:23;101691.03;;;-1.64;77.41
24558;BME280;12726;49.148;8.582;2022-12-18T13:53:18;101691.22;;;-1.54;76.96
24558;BME280;12726;49.148;8.582;2022-12-18T13:56:06;101685.34;;;-1.58;77.63
24558;BME280;12726;49.148;8.582;2022-12-18T13:59:23;101685.09;;;-1.68;78.42
24558;BME280;12726;49.148;8.582;2022-12-18T14:02:13;101692.38;;;-1.71;78.18
24558;BME280;12726;49.148;8.582;2022-12-18T14:04:58;101697.22;;;-1.78;78.98
24558;BME280;12726;49.148;8.582;2022-12-18T14:07:44;101691.47;;;-1.84;79.17
24558;BME280;12726;49.148;8.582;2022-12-18T14:10:30;101700.66;;;-1.90;79.58
24558;BME280;12726;49.148;8.582;2022-12-18T14:13:21;101690.81;;;-2.01;80.09
24558;BME280;12726;49.148;8.582;2022-12-18T14:16:14;101696.81;;;-1.99;80.27
24558;BME280;12726;49.148;8.582;2022-12-18T14:19:01;101683.00;;;-2.02;80.73
24558;BME280;12726;49.148;8.582;2022-12-18T14:21:50;101688.59;;;-2.07;81.11
24558;BME280;12726;49.148;8.582;2022-12-18T14:24:35;101700.94;;;-2.07;81.97
24558;BME280;12726;49.148;8.582;2022-12-18T14:27:24;101696.78;;;-2.11;81.98
24558;BME280;12726;49.148;8.582;2022-12-18T14:30:25;101697.00;;;-2.14;81.98
24558;BME280;12726;49.148;8.582;2022-12-18T14:33:12;101689.56;;;-2.22;82.63
24558;BME280;12726;49.148;8.582;2022-12-18T14:35:59;101690.25;;;-2.32;83.03
24558;BME280;12726;49.148;8.582;2022-12-18T14:38:48;101659.44;;;-2.59;83.79
24558;BME280;12726;49.148;8.582;2022-12-18T14:41:34;101692.53;;;-2.41;83.96